createdAt,value
2022-10-17T00:01:25.810Z,5.38
2022-10-17T00:03:46.449Z,4.50
2022-10-17T00:06:09.732Z,5.13
2022-10-17T00:08:30.261Z,3.70
2022-10-17T00:11:03.185Z,5.03
2022-10-17T00:13:23.713Z,4.88
2022-10-17T00:15:45.003Z,5.20
2022-10-17T00:18:05.558Z,5.22
2022-10-17T00:20:26.300Z,4.75
2022-10-17T00:22:46.733Z,4.70
2022-10-17T00:25:07.632Z,5.53
2022-10-17T00:27:28.255Z,4.88
2022-10-17T00:29:50.747Z,4.35
2022-10-17T00:32:11.596Z,3.90
2022-10-17T00:34:32.069Z,4.18
2022-10-17T00:36:52.639Z,4.93
2022-10-17T00:39:13.102Z,4.38
2022-10-17T00:41:35.091Z,5.18
2022-10-17T00:44:06.839Z,4.47
2022-10-17T00:46:32.218Z,4.28
2022-10-17T00:48:54.856Z,4.35
2022-10-17T00:51:16.836Z,4.47
2022-10-17T00:53:39.557Z,4.50
2022-10-17T00:56:00.123Z,5.63
2022-10-17T00:58:21.513Z,4.38
2022-10-17T01:00:43.100Z,4.68
2022-10-17T01:03:03.783Z,4.40
2022-10-17T01:05:24.182Z,5.55
2022-10-17T01:07:45.914Z,5.65
2022-10-17T01:10:08.610Z,4.95
2022-10-17T01:12:33.190Z,4.45
2022-10-17T01:14:56.480Z,5.05
2022-10-17T01:17:35.773Z,5.38
2022-10-17T01:20:17.940Z,6.13
2022-10-17T01:22:48.911Z,5.43
2022-10-17T01:25:52.571Z,5.15
2022-10-17T01:28:45.024Z,5.30
2022-10-17T01:31:22.647Z,5.70
2022-10-17T01:34:17.089Z,4.97
2022-10-17T01:37:17.769Z,5.53
2022-10-17T01:39:53.523Z,4.65
2022-10-17T01:42:17.621Z,5.80
2022-10-17T01:44:45.909Z,5.50
2022-10-17T01:47:11.435Z,6.72
2022-10-17T01:49:34.504Z,5.65
2022-10-17T01:54:24.804Z,4.55
2022-10-17T01:56:48.087Z,5.10
2022-10-17T01:59:15.258Z,4.68
2022-10-17T02:01:38.205Z,5.72
2022-10-17T02:04:00.743Z,6.82
2022-10-17T02:06:20.956Z,6.35
2022-10-17T02:08:44.455Z,6.38
2022-10-17T02:11:14.652Z,7.30
2022-10-17T02:17:02.307Z,7.30
2022-10-17T02:19:46.909Z,8.10
2022-10-17T02:22:13.600Z,6.85
2022-10-17T02:24:49.998Z,8.25
2022-10-17T02:27:25.849Z,6.35
2022-10-17T02:29:54.512Z,5.05
2022-10-17T02:32:32.295Z,4.93
2022-10-17T02:34:56.839Z,5.97
2022-10-17T02:37:22.521Z,5.88
2022-10-17T02:39:44.727Z,4.55
2022-10-17T02:42:13.917Z,5.82
2022-10-17T02:44:35.661Z,6.70
2022-10-17T02:47:03.610Z,5.68
2022-10-17T02:49:30.289Z,6.97
2022-10-17T02:52:09.370Z,6.07
2022-10-17T02:54:32.835Z,6.82
2022-10-17T02:57:02.859Z,6.80
2022-10-17T02:59:26.618Z,5.18
2022-10-17T03:01:48.030Z,5.00
2022-10-17T03:04:14.113Z,4.50
2022-10-17T03:06:34.600Z,4.15
2022-10-17T03:08:54.817Z,4.95
2022-10-17T03:11:15.601Z,5.60
2022-10-17T03:13:38.995Z,5.70
2022-10-17T03:16:00.603Z,5.88
2022-10-17T03:18:21.224Z,7.70
2022-10-17T03:20:41.968Z,7.15
2022-10-17T03:23:02.407Z,6.43
2022-10-17T03:25:23.081Z,7.13
2022-10-17T03:27:43.471Z,7.43
2022-10-17T03:30:04.724Z,8.05
2022-10-17T03:32:25.228Z,7.85
2022-10-17T03:34:45.905Z,7.28
2022-10-17T03:37:06.583Z,6.57
2022-10-17T03:39:27.379Z,6.95
2022-10-17T03:41:47.788Z,7.30
2022-10-17T03:44:08.232Z,6.72
2022-10-17T03:46:28.838Z,8.05
2022-10-17T03:48:49.303Z,7.53
2022-10-17T03:51:10.533Z,7.00
2022-10-17T03:53:31.267Z,5.95
2022-10-17T03:55:51.785Z,4.60
2022-10-17T03:58:12.376Z,4.53
2022-10-17T04:00:33.212Z,5.50
2022-10-17T04:02:53.829Z,5.32
2022-10-17T04:05:14.151Z,4.97
2022-10-17T04:07:34.618Z,5.00
2022-10-17T04:09:55.127Z,4.75
2022-10-17T04:12:15.403Z,4.47
2022-10-17T04:14:37.682Z,4.45
2022-10-17T04:16:58.623Z,4.53
2022-10-17T04:19:19.328Z,4.03
2022-10-17T04:21:40.156Z,5.40
2022-10-17T04:24:01.190Z,4.82
2022-10-17T04:26:21.754Z,3.90
2022-10-17T04:28:42.304Z,3.75
2022-10-17T04:31:05.959Z,4.90
2022-10-17T04:33:26.484Z,4.05
2022-10-17T04:36:15.559Z,3.95
2022-10-17T04:38:36.293Z,4.05
2022-10-17T04:41:06.344Z,4.93
2022-10-17T04:43:26.998Z,4.90
2022-10-17T04:45:47.319Z,4.20
2022-10-17T04:48:07.914Z,3.95
2022-10-17T04:50:28.266Z,4.93
2022-10-17T04:52:48.991Z,5.63
2022-10-17T04:55:09.711Z,5.72
2022-10-17T04:57:30.102Z,6.28
2022-10-17T04:59:51.213Z,7.03
2022-10-17T05:02:12.090Z,7.43
2022-10-17T05:04:32.579Z,7.60
2022-10-17T05:06:53.192Z,8.52
2022-10-17T05:09:13.639Z,7.03
2022-10-17T05:11:34.320Z,7.32
2022-10-17T05:14:01.142Z,7.97
2022-10-17T05:16:22.163Z,6.03
2022-10-17T05:18:42.748Z,5.70
2022-10-17T05:21:06.544Z,5.75
2022-10-17T05:23:29.273Z,4.15
2022-10-17T05:25:55.866Z,3.42
2022-10-17T05:28:16.619Z,4.18
2022-10-17T05:30:37.732Z,3.42
2022-10-17T05:32:58.691Z,3.33
2022-10-17T05:35:19.082Z,5.13
2022-10-17T05:37:39.908Z,3.55
2022-10-17T05:40:00.298Z,4.07
2022-10-17T05:42:21.034Z,3.58
2022-10-17T05:44:41.920Z,4.40
2022-10-17T05:47:02.217Z,5.18
2022-10-17T05:49:33.424Z,5.13
2022-10-17T05:52:03.301Z,5.22
2022-10-17T05:54:24.048Z,4.38
2022-10-17T05:56:44.545Z,6.07
2022-10-17T05:59:05.515Z,3.08
2022-10-17T06:01:25.908Z,6.07
2022-10-17T06:03:46.352Z,3.15
2022-10-17T06:06:09.064Z,4.22
2022-10-17T06:08:29.441Z,3.08
2022-10-17T06:10:51.005Z,3.60
2022-10-17T06:13:11.611Z,3.33
2022-10-17T06:15:32.302Z,2.30
2022-10-17T06:17:52.911Z,2.72
2022-10-17T06:20:13.322Z,2.30
2022-10-17T06:22:33.777Z,3.65
2022-10-17T06:24:54.405Z,3.00
2022-10-17T06:27:14.995Z,2.53
2022-10-17T06:29:35.960Z,4.45
2022-10-17T06:31:56.592Z,3.33
2022-10-17T06:34:17.519Z,2.50
2022-10-17T06:36:38.134Z,1.77
2022-10-17T06:38:58.779Z,2.03
2022-10-17T06:41:19.489Z,2.00
2022-10-17T06:43:46.337Z,3.30
2022-10-17T06:46:07.379Z,2.78
2022-10-17T06:48:27.725Z,2.70
2022-10-17T06:50:48.069Z,3.65
2022-10-17T06:53:08.650Z,3.40
2022-10-17T06:55:29.336Z,3.42
2022-10-17T06:57:51.872Z,3.97
2022-10-17T07:00:12.963Z,4.45
2022-10-17T07:02:33.599Z,4.28
2022-10-17T07:04:54.320Z,4.85
2022-10-17T07:07:15.059Z,4.55
2022-10-17T07:09:36.077Z,4.35
2022-10-17T07:11:56.606Z,4.47
2022-10-17T07:14:16.936Z,4.68
2022-10-17T07:16:37.830Z,5.18
2022-10-17T07:18:58.531Z,4.72
2022-10-17T07:21:19.265Z,5.80
2022-10-17T07:23:41.488Z,5.90
2022-10-17T07:26:06.964Z,6.10
2022-10-17T07:28:28.922Z,6.90
2022-10-17T07:30:53.649Z,7.47
2022-10-17T07:33:15.874Z,7.60
2022-10-17T07:35:40.755Z,5.68
2022-10-17T07:38:01.178Z,6.55
2022-10-17T07:40:21.788Z,5.25
2022-10-17T07:42:42.667Z,6.85
2022-10-17T07:45:03.806Z,5.80
2022-10-17T07:47:24.786Z,6.40
2022-10-17T07:49:45.498Z,6.25
2022-10-17T07:52:05.798Z,6.18
2022-10-17T07:54:26.294Z,7.35
2022-10-17T07:56:50.748Z,6.50
2022-10-17T07:59:11.568Z,5.78
2022-10-17T08:01:32.186Z,5.93
2022-10-17T08:03:52.817Z,5.15
2022-10-17T08:06:14.608Z,4.90
2022-10-17T08:08:35.375Z,6.30
2022-10-17T08:11:01.421Z,5.78
2022-10-17T08:13:23.115Z,4.78
2022-10-17T08:15:44.073Z,5.30
2022-10-17T08:18:04.773Z,4.65
2022-10-17T08:20:25.326Z,4.15
2022-10-17T08:22:53.215Z,3.17
2022-10-17T08:25:13.678Z,4.72
2022-10-17T08:27:35.130Z,3.70
2022-10-17T08:29:55.766Z,2.40
2022-10-17T08:32:16.271Z,2.75
2022-10-17T08:34:36.850Z,2.00
2022-10-17T08:36:57.226Z,2.28
2022-10-17T08:39:17.870Z,1.70
2022-10-17T08:41:44.086Z,2.38
2022-10-17T08:44:38.647Z,2.05
2022-10-17T08:47:02.597Z,1.90
2022-10-17T08:49:29.192Z,1.98
2022-10-17T08:51:59.470Z,3.20
2022-10-17T08:54:41.631Z,1.60
2022-10-17T08:57:02.248Z,1.95
2022-10-17T08:59:30.922Z,1.58
2022-10-17T09:02:26.328Z,2.17
2022-10-17T09:05:08.081Z,1.50
2022-10-17T09:07:41.993Z,2.05
2022-10-17T09:10:26.839Z,2.22
2022-10-17T09:13:24.719Z,2.20
2022-10-17T09:15:48.177Z,1.80
2022-10-17T09:20:37.620Z,1.65
2022-10-17T09:23:18.754Z,1.45
2022-10-17T09:25:45.523Z,1.55
2022-10-17T09:28:18.653Z,1.70
2022-10-17T09:30:47.416Z,2.10
2022-10-17T09:33:53.839Z,2.13
2022-10-17T09:36:28.247Z,1.80
2022-10-17T09:38:58.351Z,1.88
2022-10-17T09:44:19.959Z,1.20
2022-10-17T09:46:40.511Z,1.27
2022-10-17T09:49:07.203Z,1.30
2022-10-17T09:51:27.781Z,1.45
2022-10-17T09:53:56.617Z,1.58
2022-10-17T09:56:19.158Z,1.63
2022-10-17T09:58:55.002Z,2.00
2022-10-17T10:01:28.290Z,1.50
2022-10-17T10:04:12.665Z,1.17
2022-10-17T10:06:33.114Z,1.63
2022-10-17T10:08:58.731Z,1.52
2022-10-17T10:11:24.703Z,1.10
2022-10-17T10:13:49.305Z,1.13
2022-10-17T10:16:20.717Z,1.10
2022-10-17T10:18:41.485Z,1.20
2022-10-17T10:21:20.546Z,1.42
2022-10-17T10:23:43.570Z,1.08
2022-10-17T10:26:17.826Z,1.10
2022-10-17T10:28:42.067Z,0.90
2022-10-17T10:31:07.939Z,0.90
2022-10-17T10:33:31.640Z,0.82
2022-10-17T10:35:56.267Z,0.82
2022-10-17T10:38:18.218Z,0.85
2022-10-17T10:40:54.255Z,1.00
2022-10-17T10:43:30.012Z,1.00
2022-10-17T10:45:52.115Z,0.90
2022-10-17T10:48:25.346Z,0.85
2022-10-17T10:50:50.088Z,0.80
2022-10-17T10:53:44.673Z,0.80
2022-10-17T10:56:21.430Z,0.80
2022-10-17T10:58:56.998Z,0.80
2022-10-17T11:01:38.879Z,0.70
2022-10-17T11:04:37.176Z,0.80
2022-10-17T11:07:20.121Z,0.90
2022-10-17T11:09:53.913Z,1.13
2022-10-17T11:12:29.566Z,0.90
2022-10-17T11:15:07.574Z,0.80
2022-10-17T11:17:45.891Z,0.80
2022-10-17T11:20:09.492Z,0.70
2022-10-17T11:22:34.409Z,0.80
2022-10-17T11:25:00.900Z,0.80
2022-10-17T11:27:21.345Z,0.80
2022-10-17T11:29:43.645Z,0.80
2022-10-17T11:32:19.603Z,1.37
2022-10-17T11:34:47.796Z,0.70
2022-10-17T11:37:28.717Z,0.70
2022-10-17T11:39:58.791Z,0.60
2022-10-17T11:42:25.876Z,1.30
2022-10-17T11:44:49.571Z,0.60
2022-10-17T11:47:31.979Z,0.82
2022-10-17T11:49:58.570Z,0.70
2022-10-17T11:52:44.015Z,0.70
2022-10-17T11:55:22.386Z,0.70
2022-10-17T11:57:48.673Z,0.70
2022-10-17T12:00:42.708Z,0.70
2022-10-17T12:03:13.227Z,0.73
2022-10-17T12:05:43.109Z,0.80
2022-10-17T12:08:13.277Z,0.70
2022-10-17T12:11:01.660Z,0.90
2022-10-17T12:13:28.053Z,0.80
2022-10-17T12:15:49.813Z,0.88
2022-10-17T12:18:17.411Z,0.80
2022-10-17T12:20:38.467Z,0.70
2022-10-17T12:23:11.252Z,0.80
2022-10-17T12:28:07.289Z,0.70
2022-10-17T12:30:28.287Z,0.80
2022-10-17T12:33:06.601Z,0.93
2022-10-17T12:35:29.617Z,1.02
2022-10-17T12:37:49.874Z,0.70
2022-10-17T12:40:35.318Z,0.75
2022-10-17T12:42:56.249Z,0.70
2022-10-17T12:45:54.400Z,0.80
2022-10-17T12:48:36.458Z,0.75
2022-10-17T12:51:35.635Z,0.80
2022-10-17T12:54:19.634Z,0.70
2022-10-17T12:56:49.254Z,0.80
2022-10-17T12:59:21.700Z,0.80
2022-10-17T13:01:46.574Z,0.70
2022-10-17T13:04:10.762Z,0.73
2022-10-17T13:06:32.502Z,0.70
2022-10-17T13:09:04.185Z,1.00
2022-10-17T13:11:28.970Z,0.80
2022-10-17T13:13:52.348Z,0.70
2022-10-17T13:16:29.363Z,0.70
2022-10-17T13:18:53.735Z,0.90
2022-10-17T13:21:20.179Z,0.80
2022-10-17T13:23:40.807Z,0.80
2022-10-17T13:26:07.556Z,0.80
2022-10-17T13:28:29.233Z,0.98
2022-10-17T13:30:50.091Z,1.05
2022-10-17T13:33:34.014Z,1.33
2022-10-17T13:36:01.656Z,0.73
2022-10-17T13:38:29.438Z,0.80
2022-10-17T13:40:50.720Z,0.90
2022-10-17T13:43:18.030Z,1.05
2022-10-17T13:45:39.127Z,0.80
2022-10-17T13:48:20.061Z,0.80
2022-10-17T13:50:44.653Z,0.63
2022-10-17T13:53:27.111Z,0.77
2022-10-17T13:56:09.359Z,0.70
2022-10-17T14:01:01.485Z,0.80
2022-10-17T14:03:23.395Z,0.70
2022-10-17T14:06:09.723Z,0.70
2022-10-17T14:08:32.543Z,0.70
2022-10-17T14:10:53.283Z,0.75
2022-10-17T14:13:23.772Z,0.82
2022-10-17T14:15:45.980Z,0.80
2022-10-17T14:18:09.008Z,0.80
2022-10-17T14:23:44.481Z,0.80
2022-10-17T14:26:10.518Z,0.80
2022-10-17T14:28:31.529Z,0.70
2022-10-17T14:30:57.417Z,0.70
2022-10-17T14:33:29.449Z,0.70
2022-10-17T14:35:56.228Z,0.82
2022-10-17T14:38:17.631Z,0.70
2022-10-17T14:40:38.479Z,0.80
2022-10-17T14:43:05.149Z,0.80
2022-10-17T14:45:29.782Z,0.80
2022-10-17T14:47:51.868Z,0.70
2022-10-17T14:50:12.699Z,0.80
2022-10-17T14:52:34.366Z,0.80
2022-10-17T14:54:55.952Z,0.80
2022-10-17T14:57:27.228Z,0.77
2022-10-17T14:59:55.710Z,0.80
2022-10-17T15:02:16.651Z,0.80
2022-10-17T15:04:37.380Z,0.90
2022-10-17T15:06:57.559Z,0.80
2022-10-17T15:09:18.243Z,0.80
2022-10-17T15:11:39.173Z,1.13
2022-10-17T15:13:59.781Z,0.80
2022-10-17T15:16:30.804Z,0.80
2022-10-17T15:18:52.876Z,1.23
2022-10-17T15:21:26.425Z,0.90
2022-10-17T15:23:54.886Z,0.77
2022-10-17T15:26:25.096Z,0.80
2022-10-17T15:28:47.476Z,1.10
2022-10-17T15:31:14.490Z,0.80
2022-10-17T15:33:35.165Z,0.90
2022-10-17T15:35:55.870Z,0.85
2022-10-17T15:38:18.452Z,0.80
2022-10-17T15:40:41.793Z,1.48
2022-10-17T15:43:02.097Z,1.27
2022-10-17T15:45:23.401Z,1.67
2022-10-17T15:47:52.285Z,1.30
2022-10-17T15:50:17.231Z,2.75
2022-10-17T15:52:37.977Z,4.22
2022-10-17T15:55:00.950Z,4.88
2022-10-17T15:57:27.335Z,2.58
2022-10-17T15:59:49.154Z,1.42
2022-10-17T16:02:17.029Z,1.15
2022-10-17T16:04:37.502Z,1.30
2022-10-17T16:06:57.924Z,1.50
2022-10-17T16:09:18.641Z,2.22
2022-10-17T16:11:42.056Z,2.47
2022-10-17T16:14:12.581Z,1.98
2022-10-17T16:16:33.805Z,1.30
2022-10-17T16:18:54.063Z,1.00
2022-10-17T16:21:15.969Z,0.98
2022-10-17T16:23:36.305Z,1.42
2022-10-17T16:25:56.821Z,1.35
2022-10-17T16:28:17.226Z,1.30
2022-10-17T16:30:42.844Z,1.23
2022-10-17T16:33:03.604Z,11.02
2022-10-17T16:35:33.157Z,3.63
2022-10-17T16:40:19.003Z,3.15
2022-10-17T16:42:39.317Z,3.10
2022-10-17T16:44:59.834Z,1.75
2022-10-17T16:47:20.187Z,1.50
2022-10-17T16:49:43.029Z,2.20
2022-10-17T16:52:05.761Z,1.73
2022-10-17T16:54:26.375Z,1.10
2022-10-17T16:56:46.862Z,1.70
2022-10-17T16:59:07.782Z,2.28
2022-10-17T17:01:29.487Z,1.23
2022-10-17T17:03:51.666Z,1.10
2022-10-17T17:06:15.455Z,1.30
2022-10-17T17:08:38.651Z,1.20
2022-10-17T17:10:59.060Z,1.33
2022-10-17T17:13:19.590Z,1.25
2022-10-17T17:15:40.013Z,2.50
2022-10-17T17:18:05.314Z,3.15
2022-10-17T17:20:26.639Z,2.58
2022-10-17T17:22:47.269Z,2.92
2022-10-17T17:25:07.943Z,4.32
2022-10-17T17:27:29.415Z,3.95
2022-10-17T17:29:50.545Z,6.15
2022-10-17T17:32:11.688Z,6.05
2022-10-17T17:34:36.500Z,5.72
2022-10-17T17:36:57.066Z,5.10
2022-10-17T17:39:17.668Z,4.65
2022-10-17T17:41:40.568Z,4.25
2022-10-17T17:44:02.682Z,7.57
2022-10-17T17:46:25.651Z,6.30
2022-10-17T17:48:48.573Z,5.57
2022-10-17T17:51:10.813Z,4.70
2022-10-17T17:53:31.502Z,4.03
2022-10-17T17:56:15.333Z,18.20
2022-10-17T17:58:36.363Z,18.70
2022-10-17T18:00:57.403Z,8.35
2022-10-17T18:03:18.006Z,3.67
2022-10-17T18:05:40.370Z,2.97
2022-10-17T18:08:01.314Z,2.15
2022-10-17T18:10:21.654Z,2.92
2022-10-17T18:12:41.847Z,3.45
2022-10-17T18:15:03.389Z,4.30
2022-10-17T18:17:23.704Z,4.72
2022-10-17T18:19:43.963Z,3.75
2022-10-17T18:22:04.509Z,4.07
2022-10-17T18:24:24.835Z,4.57
2022-10-17T18:26:45.323Z,5.15
2022-10-17T18:29:05.901Z,4.53
2022-10-17T18:31:32.281Z,4.95
2022-10-17T18:33:54.397Z,4.00
2022-10-17T18:36:15.923Z,4.18
2022-10-17T18:38:37.455Z,5.13
2022-10-17T18:41:10.441Z,7.70
2022-10-17T18:43:33.264Z,4.88
2022-10-17T18:45:57.234Z,5.63
2022-10-17T18:48:18.104Z,5.47
2022-10-17T18:50:39.251Z,4.82
2022-10-17T18:52:59.880Z,4.50
2022-10-17T18:55:20.628Z,3.95
2022-10-17T18:57:41.235Z,5.40
2022-10-17T19:00:01.654Z,5.03
2022-10-17T19:02:22.303Z,6.47
2022-10-17T19:04:42.908Z,6.78
2022-10-17T19:07:03.519Z,7.43
2022-10-17T19:09:24.247Z,10.32
2022-10-17T19:11:44.874Z,8.82
2022-10-17T19:14:13.749Z,14.05
2022-10-17T19:16:36.786Z,10.07
2022-10-17T19:19:00.328Z,10.95
2022-10-17T19:21:22.221Z,10.48
2022-10-17T19:23:43.029Z,7.05
2022-10-17T19:26:11.205Z,8.18
2022-10-17T19:28:32.429Z,7.80
2022-10-17T19:30:53.270Z,7.25
2022-10-17T19:33:14.270Z,6.70
2022-10-17T19:35:35.435Z,7.47
2022-10-17T19:37:55.972Z,9.63
2022-10-17T19:40:17.082Z,9.35
2022-10-17T19:42:37.452Z,9.50
2022-10-17T19:44:58.097Z,8.45
2022-10-17T19:47:18.385Z,7.88
2022-10-17T19:49:39.124Z,6.30
2022-10-17T19:51:59.405Z,5.93
2022-10-17T19:54:20.410Z,5.13
2022-10-17T19:56:43.485Z,5.80
2022-10-17T19:59:06.234Z,7.85
2022-10-17T20:01:29.473Z,9.55
2022-10-17T20:03:50.373Z,10.63
2022-10-17T20:06:11.474Z,9.98
2022-10-17T20:08:31.812Z,7.25
2022-10-17T20:10:52.272Z,6.30
2022-10-17T20:13:13.694Z,6.53
2022-10-17T20:15:34.484Z,5.72
2022-10-17T20:17:55.094Z,5.45
2022-10-17T20:20:16.090Z,5.38
2022-10-17T20:22:36.622Z,6.93
2022-10-17T20:24:57.245Z,7.00
2022-10-17T20:27:18.167Z,5.30
2022-10-17T20:29:39.076Z,5.38
2022-10-17T20:31:59.337Z,5.38
2022-10-17T20:34:20.028Z,5.30
2022-10-17T20:36:43.024Z,5.20
2022-10-17T20:39:04.227Z,5.35
2022-10-17T20:41:25.665Z,5.25
2022-10-17T20:43:46.149Z,5.38
2022-10-17T20:46:29.373Z,6.38
2022-10-17T20:48:58.142Z,6.80
2022-10-17T20:51:18.846Z,7.35
2022-10-17T20:53:41.530Z,6.82
2022-10-17T20:56:07.483Z,6.68
2022-10-17T20:58:28.014Z,7.13
2022-10-17T21:00:48.840Z,5.55
2022-10-17T21:03:10.094Z,6.60
2022-10-17T21:05:30.627Z,6.15
2022-10-17T21:07:51.288Z,7.15
2022-10-17T21:10:34.482Z,7.70
2022-10-17T21:12:54.397Z,6.35
2022-10-17T21:15:15.101Z,6.60
2022-10-17T21:17:35.347Z,5.90
2022-10-17T21:19:55.995Z,7.15
2022-10-17T21:22:16.405Z,5.63
2022-10-17T21:24:36.693Z,5.50
2022-10-17T21:26:57.579Z,5.85
2022-10-17T21:29:18.006Z,6.38
2022-10-17T21:31:41.214Z,6.10
2022-10-17T21:34:20.059Z,7.93
2022-10-17T21:36:40.470Z,7.57
2022-10-17T21:39:00.901Z,8.63
2022-10-17T21:41:24.357Z,7.85
2022-10-17T21:46:07.103Z,9.70
2022-10-17T21:48:27.575Z,11.90
2022-10-17T21:50:48.225Z,9.65
2022-10-17T21:53:08.514Z,8.57
2022-10-17T21:55:29.362Z,7.85
2022-10-17T21:57:51.358Z,7.57
2022-10-17T22:00:12.428Z,8.93
2022-10-17T22:02:33.060Z,6.70
2022-10-17T22:04:53.893Z,7.07
2022-10-17T22:07:14.458Z,8.13
2022-10-17T22:09:34.609Z,6.43
2022-10-17T22:11:57.024Z,7.40
2022-10-17T22:14:20.093Z,7.07
2022-10-17T22:19:06.181Z,7.55
2022-10-17T22:21:27.908Z,8.02
2022-10-17T22:23:59.052Z,7.65
2022-10-17T22:26:19.303Z,6.90
2022-10-17T22:28:41.290Z,6.50
2022-10-17T22:31:02.130Z,6.75
2022-10-17T22:33:22.449Z,6.30
2022-10-17T22:35:44.125Z,6.85
2022-10-17T22:38:04.785Z,6.80
2022-10-17T22:40:25.222Z,6.80
2022-10-17T22:42:45.465Z,6.70
2022-10-17T22:45:06.185Z,6.05
2022-10-17T22:47:26.914Z,5.45
2022-10-17T22:49:47.234Z,6.10
2022-10-17T22:52:07.784Z,6.22
2022-10-17T22:54:28.699Z,5.28
2022-10-17T22:56:49.434Z,5.20
2022-10-17T22:59:09.968Z,4.05
2022-10-17T23:01:30.745Z,4.68
2022-10-17T23:03:52.780Z,6.07
2022-10-17T23:06:13.829Z,4.95
2022-10-17T23:08:34.594Z,5.03
2022-10-17T23:10:55.064Z,4.88
2022-10-17T23:13:16.110Z,4.68
2022-10-17T23:15:37.428Z,5.30
2022-10-17T23:17:58.920Z,5.20
2022-10-17T23:20:19.785Z,5.35
2022-10-17T23:22:40.069Z,4.95
2022-10-17T23:25:00.666Z,4.63
2022-10-17T23:27:21.070Z,5.43
2022-10-17T23:29:42.537Z,5.40
2022-10-17T23:32:03.427Z,6.18
2022-10-17T23:34:23.795Z,5.38
2022-10-17T23:36:44.521Z,6.65
2022-10-17T23:39:06.055Z,6.18
2022-10-17T23:41:26.951Z,6.40
2022-10-17T23:43:47.289Z,5.53
2022-10-17T23:46:07.988Z,6.32
2022-10-17T23:48:29.296Z,6.32
2022-10-17T23:50:50.036Z,6.47
2022-10-17T23:53:10.707Z,6.82
2022-10-17T23:55:31.487Z,6.57
2022-10-17T23:57:51.992Z,5.15
